createdAt,value
2018-04-17T00:01:53.265Z,71.65
2018-04-17T00:04:21.724Z,72.38
2018-04-17T00:06:50.154Z,72.38
2018-04-17T00:09:18.627Z,70.57
2018-04-17T00:11:47.056Z,70.08
2018-04-17T00:14:15.525Z,71.00
2018-04-17T00:16:43.951Z,70.82
2018-04-17T00:19:12.474Z,69.19
2018-04-17T00:21:40.896Z,68.76
2018-04-17T00:24:09.419Z,69.04
2018-04-17T00:26:37.883Z,69.41
2018-04-17T00:29:06.473Z,69.23
2018-04-17T00:31:34.907Z,69.60
2018-04-17T00:34:03.607Z,69.99
2018-04-17T00:36:32.182Z,70.45
2018-04-17T00:39:00.635Z,70.73
2018-04-17T00:41:29.244Z,71.78
2018-04-17T00:43:57.647Z,71.07
2018-04-17T00:46:26.219Z,70.47
2018-04-17T00:48:54.694Z,71.61
2018-04-17T00:51:23.382Z,70.72
2018-04-17T00:53:53.767Z,71.20
2018-04-17T00:56:22.160Z,70.81
2018-04-17T00:58:51.286Z,71.36
2018-04-17T01:01:19.684Z,71.45
2018-04-17T01:03:48.144Z,71.75
2018-04-17T01:06:16.584Z,72.08
2018-04-17T01:08:45.016Z,73.23
2018-04-17T01:11:13.444Z,72.07
2018-04-17T01:13:41.929Z,71.79
2018-04-17T01:16:10.430Z,72.43
2018-04-17T01:18:38.981Z,73.73
2018-04-17T01:21:07.439Z,73.77
2018-04-17T01:23:35.873Z,73.20
2018-04-17T01:26:04.292Z,73.24
2018-04-17T01:28:32.771Z,72.84
2018-04-17T01:31:01.161Z,72.81
2018-04-17T01:33:29.571Z,72.63
2018-04-17T01:35:58.032Z,73.77
2018-04-17T01:38:26.437Z,74.44
2018-04-17T01:40:55.020Z,73.50
2018-04-17T01:43:23.495Z,73.68
2018-04-17T01:45:51.959Z,73.73
2018-04-17T01:48:20.536Z,74.18
2018-04-17T01:50:48.975Z,75.31
2018-04-17T01:53:17.448Z,74.86
2018-04-17T01:55:45.831Z,73.80
2018-04-17T01:58:14.294Z,73.34
2018-04-17T02:00:42.745Z,73.84
2018-04-17T02:03:11.175Z,74.29
2018-04-17T02:05:39.599Z,74.73
2018-04-17T02:08:08.055Z,75.84
2018-04-17T02:10:36.511Z,76.36
2018-04-17T02:13:07.210Z,76.60
2018-04-17T02:15:35.743Z,75.53
2018-04-17T02:18:04.145Z,75.57
2018-04-17T02:20:32.722Z,76.38
2018-04-17T02:23:01.232Z,76.19
2018-04-17T02:25:29.685Z,76.62
2018-04-17T02:27:58.094Z,75.66
2018-04-17T02:30:26.528Z,74.84
2018-04-17T02:32:54.950Z,74.68
2018-04-17T02:35:23.423Z,74.58
2018-04-17T02:37:51.827Z,74.85
2018-04-17T02:40:20.275Z,76.21
2018-04-17T02:42:48.751Z,76.21
2018-04-17T02:45:17.207Z,75.73
2018-04-17T02:47:45.671Z,76.64
2018-04-17T02:50:14.120Z,77.38
2018-04-17T02:52:42.605Z,75.77
2018-04-17T02:55:11.032Z,75.93
2018-04-17T02:57:39.504Z,76.77
2018-04-17T03:00:07.975Z,76.98
2018-04-17T03:02:36.404Z,77.04
2018-04-17T03:05:04.873Z,75.86
2018-04-17T03:07:33.327Z,77.39
2018-04-17T03:10:01.889Z,76.49
2018-04-17T03:12:30.420Z,75.81
2018-04-17T03:14:58.816Z,75.94
2018-04-17T03:17:27.322Z,75.11
2018-04-17T03:19:55.766Z,75.16
2018-04-17T03:22:24.210Z,75.86
2018-04-17T03:24:52.662Z,76.32
2018-04-17T03:27:21.059Z,76.31
2018-04-17T03:29:49.521Z,76.70
2018-04-17T03:32:17.916Z,76.59
2018-04-17T03:34:46.391Z,77.22
2018-04-17T03:37:14.838Z,77.69
2018-04-17T03:39:43.278Z,77.81
2018-04-17T03:42:11.733Z,79.79
2018-04-17T03:44:40.120Z,78.98
2018-04-17T03:47:08.582Z,77.46
2018-04-17T03:49:37.023Z,77.90
2018-04-17T03:52:05.503Z,78.68
2018-04-17T03:54:33.979Z,78.49
2018-04-17T03:57:02.433Z,77.71
2018-04-17T03:59:30.964Z,76.65
2018-04-17T04:01:59.342Z,77.26
2018-04-17T04:04:27.728Z,76.87
2018-04-17T04:06:56.187Z,76.63
2018-04-17T04:09:24.588Z,75.94
2018-04-17T04:11:53.072Z,76.80
2018-04-17T04:14:21.515Z,77.54
2018-04-17T04:17:01.907Z,77.77
2018-04-17T04:19:42.216Z,77.50
2018-04-17T04:22:22.409Z,76.83
2018-04-17T04:25:02.603Z,76.63
2018-04-17T04:27:31.074Z,76.89
2018-04-17T04:29:59.662Z,76.43
2018-04-17T04:32:28.080Z,76.00
2018-04-17T04:34:57.411Z,76.21
2018-04-17T04:37:25.842Z,76.80
2018-04-17T04:39:54.373Z,77.15
2018-04-17T04:42:22.900Z,75.14
2018-04-17T04:44:51.362Z,74.25
2018-04-17T04:47:19.817Z,74.32
2018-04-17T04:49:48.267Z,73.34
2018-04-17T04:52:16.703Z,74.12
2018-04-17T04:54:45.308Z,74.54
2018-04-17T04:57:13.849Z,73.21
2018-04-17T04:59:42.299Z,72.50
2018-04-17T05:02:10.799Z,73.04
2018-04-17T05:04:39.322Z,72.55
2018-04-17T05:07:07.840Z,71.83
2018-04-17T05:09:36.336Z,71.09
2018-04-17T05:12:04.844Z,71.58
2018-04-17T05:14:33.436Z,71.43
2018-04-17T05:17:01.985Z,70.97
2018-04-17T05:19:30.508Z,71.18
2018-04-17T05:21:59.033Z,70.99
2018-04-17T05:24:27.474Z,70.47
2018-04-17T05:26:55.895Z,70.15
2018-04-17T05:29:24.415Z,71.52
2018-04-17T05:31:52.835Z,70.26
2018-04-17T05:34:21.280Z,70.34
2018-04-17T05:36:49.752Z,69.49
2018-04-17T05:39:18.199Z,69.56
2018-04-17T05:41:47.259Z,69.34
2018-04-17T05:44:15.720Z,69.81
2018-04-17T05:46:44.160Z,68.65
2018-04-17T05:49:12.613Z,67.29
2018-04-17T05:51:41.024Z,65.83
2018-04-17T05:54:09.486Z,64.37
2018-04-17T05:56:37.997Z,63.78
2018-04-17T05:59:06.446Z,63.41
2018-04-17T06:01:34.939Z,66.02
2018-04-17T06:04:03.344Z,64.35
2018-04-17T06:06:31.739Z,63.01
2018-04-17T06:09:00.322Z,61.98
2018-04-17T06:11:28.776Z,60.28
2018-04-17T06:13:57.182Z,58.86
2018-04-17T06:16:25.636Z,60.50
2018-04-17T06:18:54.148Z,60.71
2018-04-17T06:21:22.547Z,59.40
2018-04-17T06:23:51.016Z,60.66
2018-04-17T06:26:19.415Z,60.50
2018-04-17T06:28:47.842Z,60.17
2018-04-17T06:31:16.321Z,57.68
2018-04-17T06:33:44.786Z,56.54
2018-04-17T06:36:13.242Z,57.08
2018-04-17T06:38:41.655Z,56.82
2018-04-17T06:41:10.108Z,56.71
2018-04-17T06:43:38.515Z,56.15
2018-04-17T06:46:06.963Z,55.35
2018-04-17T06:48:35.430Z,54.14
2018-04-17T06:51:03.906Z,53.21
2018-04-17T06:53:32.372Z,52.85
2018-04-17T06:56:00.807Z,54.27
2018-04-17T06:58:29.245Z,53.88
2018-04-17T07:00:57.694Z,52.63
2018-04-17T07:03:26.131Z,52.20
2018-04-17T07:05:54.584Z,52.07
2018-04-17T07:08:23.065Z,53.79
2018-04-17T07:10:51.468Z,53.11
2018-04-17T07:13:19.877Z,54.54
2018-04-17T07:15:48.328Z,54.03
2018-04-17T07:18:16.750Z,52.91
2018-04-17T07:20:45.183Z,51.49
2018-04-17T07:23:13.601Z,50.05
2018-04-17T07:25:42.086Z,48.65
2018-04-17T07:28:10.520Z,49.26
2018-04-17T07:30:38.976Z,48.85
2018-04-17T07:33:07.387Z,48.44
2018-04-17T07:35:35.892Z,48.37
2018-04-17T07:38:04.398Z,47.30
2018-04-17T07:40:32.925Z,47.27
2018-04-17T07:43:01.363Z,49.77
2018-04-17T07:45:29.783Z,49.54
2018-04-17T07:48:17.199Z,48.24
2018-04-17T07:50:45.625Z,48.31
2018-04-17T07:53:14.051Z,48.73
2018-04-17T07:55:42.522Z,48.59
2018-04-17T07:58:11.076Z,49.17
2018-04-17T08:00:39.482Z,47.81
2018-04-17T08:03:07.984Z,47.83
2018-04-17T08:05:36.537Z,47.82
2018-04-17T08:08:05.022Z,48.03
2018-04-17T08:10:33.427Z,47.04
2018-04-17T08:13:01.981Z,45.68
2018-04-17T08:15:30.435Z,45.48
2018-04-17T08:17:58.932Z,47.10
2018-04-17T08:20:27.350Z,46.67
2018-04-17T08:22:55.784Z,47.56
2018-04-17T08:25:24.236Z,44.61
2018-04-17T08:27:52.674Z,43.92
2018-04-17T08:30:21.093Z,44.79
2018-04-17T08:32:49.629Z,43.93
2018-04-17T08:35:18.161Z,42.75
2018-04-17T08:37:46.574Z,41.27
2018-04-17T08:40:14.972Z,40.38
2018-04-17T08:42:43.532Z,38.15
2018-04-17T08:45:11.954Z,37.27
2018-04-17T08:47:40.361Z,36.39
2018-04-17T08:50:08.993Z,34.51
2018-04-17T08:52:37.419Z,34.11
2018-04-17T08:55:06.013Z,34.78
2018-04-17T08:57:34.455Z,37.09
2018-04-17T09:00:03.032Z,33.64
2018-04-17T09:02:31.496Z,33.36
2018-04-17T09:04:59.931Z,33.17
2018-04-17T09:07:28.353Z,31.62
2018-04-17T09:09:56.808Z,30.55
2018-04-17T09:12:25.243Z,30.11
2018-04-17T09:14:53.705Z,30.36
2018-04-17T09:17:22.171Z,31.60
2018-04-17T09:19:50.673Z,32.86
2018-04-17T09:22:19.135Z,32.34
2018-04-17T09:24:47.688Z,31.41
2018-04-17T09:27:16.079Z,32.37
2018-04-17T09:29:44.526Z,35.92
2018-04-17T09:32:13.073Z,34.90
2018-04-17T09:34:41.560Z,33.80
2018-04-17T09:37:10.023Z,32.72
2018-04-17T09:39:38.459Z,35.03
2018-04-17T09:42:06.996Z,35.60
2018-04-17T09:44:35.429Z,34.83
2018-04-17T09:47:03.916Z,36.77
2018-04-17T09:49:32.444Z,35.82
2018-04-17T09:52:00.979Z,35.80
2018-04-17T09:54:29.463Z,34.50
2018-04-17T09:56:57.883Z,33.36
2018-04-17T09:59:26.283Z,32.77
2018-04-17T10:01:54.788Z,31.95
2018-04-17T10:04:23.214Z,32.00
2018-04-17T10:06:51.612Z,32.02
2018-04-17T10:09:20.075Z,33.00
2018-04-17T10:11:48.490Z,31.92
2018-04-17T10:14:16.957Z,30.33
2018-04-17T10:16:45.448Z,28.85
2018-04-17T10:19:13.843Z,27.53
2018-04-17T10:21:42.294Z,28.58
2018-04-17T10:24:10.756Z,29.52
2018-04-17T10:26:39.363Z,29.42
2018-04-17T10:29:07.767Z,30.91
2018-04-17T10:31:36.218Z,28.79
2018-04-17T10:34:04.676Z,27.84
2018-04-17T10:36:33.043Z,27.28
2018-04-17T10:39:01.501Z,25.38
2018-04-17T10:41:30.024Z,25.58
2018-04-17T10:43:58.515Z,25.04
2018-04-17T10:46:26.936Z,26.54
2018-04-17T10:48:55.373Z,25.96
2018-04-17T10:51:23.797Z,26.47
2018-04-17T10:53:52.354Z,28.70
2018-04-17T10:56:21.106Z,28.19
2018-04-17T10:58:49.590Z,26.63
2018-04-17T11:01:17.990Z,25.79
2018-04-17T11:03:46.414Z,24.36
2018-04-17T11:06:14.936Z,24.10
2018-04-17T11:08:43.409Z,22.92
2018-04-17T11:11:11.883Z,22.74
2018-04-17T11:13:40.363Z,23.35
2018-04-17T11:16:08.756Z,23.58
2018-04-17T11:18:37.247Z,26.89
2018-04-17T11:21:05.717Z,28.18
2018-04-17T11:23:34.171Z,27.59
2018-04-17T11:26:02.638Z,25.63
2018-04-17T11:28:31.065Z,25.58
2018-04-17T11:30:59.546Z,28.05
2018-04-17T11:33:27.987Z,29.46
2018-04-17T11:35:56.434Z,32.10
2018-04-17T11:38:24.827Z,30.80
2018-04-17T11:40:53.288Z,30.79
2018-04-17T11:43:21.730Z,29.99
2018-04-17T11:45:50.153Z,29.70
2018-04-17T11:48:18.598Z,28.23
2018-04-17T11:50:47.007Z,26.98
2018-04-17T11:53:15.412Z,26.55
2018-04-17T11:55:43.848Z,24.93
2018-04-17T11:58:12.270Z,25.27
2018-04-17T12:00:40.742Z,23.27
2018-04-17T12:03:09.207Z,23.98
2018-04-17T12:05:37.747Z,24.53
2018-04-17T12:08:06.201Z,26.44
2018-04-17T12:10:34.673Z,31.31
2018-04-17T12:13:03.096Z,31.80
2018-04-17T12:15:31.507Z,30.28
2018-04-17T12:17:59.972Z,28.65
2018-04-17T12:20:28.403Z,28.12
2018-04-17T12:22:56.834Z,26.79
2018-04-17T12:25:25.299Z,29.77
2018-04-17T12:27:53.805Z,32.99
2018-04-17T12:30:22.215Z,35.09
2018-04-17T12:32:50.652Z,33.68
2018-04-17T12:35:19.057Z,32.31
2018-04-17T12:37:47.552Z,34.26
2018-04-17T12:40:16.005Z,34.69
2018-04-17T12:42:44.578Z,35.91
2018-04-17T12:45:13.048Z,35.02
2018-04-17T12:47:41.435Z,32.26
2018-04-17T12:50:09.872Z,33.14
2018-04-17T12:52:38.297Z,32.34
2018-04-17T12:55:06.756Z,30.28
2018-04-17T12:57:35.292Z,28.57
2018-04-17T13:00:03.797Z,28.67
2018-04-17T13:02:32.256Z,30.11
2018-04-17T13:05:00.699Z,28.99
2018-04-17T13:07:29.181Z,30.19
2018-04-17T13:09:57.616Z,30.98
2018-04-17T13:12:26.063Z,33.60
2018-04-17T13:14:54.526Z,34.68
2018-04-17T13:17:22.976Z,34.45
2018-04-17T13:19:51.445Z,33.59
2018-04-17T13:22:19.855Z,33.48
2018-04-17T13:24:48.272Z,33.28
2018-04-17T13:27:16.782Z,33.36
2018-04-17T13:29:45.208Z,34.85
2018-04-17T13:32:13.630Z,35.32
2018-04-17T13:34:42.210Z,35.70
2018-04-17T13:37:10.674Z,33.45
2018-04-17T13:39:39.269Z,30.05
2018-04-17T13:42:07.707Z,30.14
2018-04-17T13:44:36.127Z,30.88
2018-04-17T13:47:04.588Z,30.89
2018-04-17T13:49:33.000Z,31.07
2018-04-17T13:52:01.423Z,30.93
2018-04-17T13:54:29.815Z,29.81
2018-04-17T13:56:58.331Z,29.75
2018-04-17T13:59:26.728Z,30.22
2018-04-17T14:01:55.139Z,29.27
2018-04-17T14:04:23.628Z,28.20
2018-04-17T14:06:52.047Z,26.81
2018-04-17T14:09:20.515Z,25.38
2018-04-17T14:11:48.944Z,25.45
2018-04-17T14:14:17.336Z,26.13
2018-04-17T14:16:45.803Z,27.78
2018-04-17T14:19:14.224Z,28.95
2018-04-17T14:21:42.626Z,29.47
2018-04-17T14:24:11.063Z,29.57
2018-04-17T14:26:39.447Z,29.00
2018-04-17T14:29:07.955Z,28.95
2018-04-17T14:31:36.510Z,29.66
2018-04-17T14:34:04.907Z,30.35
2018-04-17T14:36:33.450Z,30.96
2018-04-17T14:39:01.965Z,32.14
2018-04-17T14:41:36.488Z,32.42
2018-04-17T14:44:04.956Z,31.66
2018-04-17T14:46:33.418Z,32.60
2018-04-17T14:49:01.972Z,33.50
2018-04-17T14:51:30.425Z,33.21
2018-04-17T14:53:58.885Z,34.02
2018-04-17T14:56:27.397Z,36.81
2018-04-17T14:58:55.871Z,38.71
2018-04-17T15:01:24.893Z,38.74
2018-04-17T15:03:53.447Z,39.53
2018-04-17T15:06:21.849Z,40.82
2018-04-17T15:08:50.414Z,40.85
2018-04-17T15:11:18.928Z,41.56
2018-04-17T15:13:47.866Z,39.63
2018-04-17T15:16:17.718Z,40.13
2018-04-17T15:18:46.265Z,39.86
2018-04-17T15:21:14.690Z,38.94
2018-04-17T15:23:43.160Z,39.20
2018-04-17T15:26:11.639Z,39.50
2018-04-17T15:28:40.084Z,40.81
2018-04-17T15:31:08.502Z,39.89
2018-04-17T15:33:37.145Z,40.63
2018-04-17T15:36:05.590Z,39.01
2018-04-17T15:38:34.037Z,39.56
2018-04-17T15:41:02.585Z,40.27
2018-04-17T15:43:31.039Z,42.26
2018-04-17T15:45:59.501Z,43.31
2018-04-17T15:48:27.932Z,44.99
2018-04-17T15:50:56.376Z,46.89
2018-04-17T15:53:24.890Z,48.09
2018-04-17T15:55:53.367Z,49.59
2018-04-17T15:58:21.783Z,52.92
2018-04-17T16:00:50.222Z,56.01
2018-04-17T16:03:18.844Z,58.44
2018-04-17T16:05:47.375Z,60.51
2018-04-17T16:08:15.824Z,62.00
2018-04-17T16:10:44.478Z,60.90
2018-04-17T16:13:12.985Z,60.62
2018-04-17T16:15:41.580Z,61.14
2018-04-17T16:18:10.023Z,63.31
2018-04-17T16:20:38.436Z,64.68
2018-04-17T16:23:06.884Z,66.52
2018-04-17T16:25:35.401Z,67.27
2018-04-17T16:28:03.819Z,68.14
2018-04-17T16:30:32.264Z,69.35
2018-04-17T16:33:00.757Z,69.94
2018-04-17T16:35:29.178Z,69.23
2018-04-17T16:37:57.647Z,70.34
2018-04-17T16:40:26.087Z,70.90
2018-04-17T16:42:54.560Z,70.97
2018-04-17T16:45:22.963Z,69.51
2018-04-17T16:47:51.447Z,69.44
2018-04-17T16:50:19.856Z,70.86
2018-04-17T16:52:48.310Z,70.29
2018-04-17T16:55:16.777Z,69.46
2018-04-17T16:57:45.428Z,68.80
2018-04-17T17:00:13.886Z,69.90
2018-04-17T17:02:42.286Z,67.92
2018-04-17T17:05:10.699Z,68.54
2018-04-17T17:07:39.129Z,67.81
2018-04-17T17:10:07.564Z,68.20
2018-04-17T17:12:35.972Z,67.73
2018-04-17T17:15:04.417Z,67.49
2018-04-17T17:17:32.876Z,67.24
2018-04-17T17:20:01.441Z,66.97
2018-04-17T17:22:29.883Z,66.82
2018-04-17T17:24:58.292Z,66.62
2018-04-17T17:27:26.755Z,65.68
2018-04-17T17:29:55.156Z,65.78
2018-04-17T17:32:23.587Z,65.98
2018-04-17T17:34:51.982Z,65.74
2018-04-17T17:37:20.401Z,64.60
2018-04-17T17:39:48.881Z,65.14
2018-04-17T17:42:17.846Z,63.49
2018-04-17T17:44:46.306Z,64.13
2018-04-17T17:47:14.792Z,63.58
2018-04-17T17:49:43.216Z,63.51
2018-04-17T17:52:11.664Z,63.53
2018-04-17T17:54:40.052Z,63.30
2018-04-17T17:57:08.459Z,64.03
2018-04-17T17:59:36.920Z,64.52
2018-04-17T18:02:05.397Z,64.21
2018-04-17T18:04:33.831Z,63.13
2018-04-17T18:07:02.264Z,62.68
2018-04-17T18:09:30.731Z,62.86
2018-04-17T18:11:59.223Z,62.86
2018-04-17T18:14:27.620Z,62.45
2018-04-17T18:16:56.067Z,61.68
2018-04-17T18:19:24.501Z,61.40
2018-04-17T18:21:52.890Z,61.04
2018-04-17T18:24:21.438Z,61.20
2018-04-17T18:26:49.853Z,61.79
2018-04-17T18:29:18.325Z,61.25
2018-04-17T18:31:46.769Z,62.03
2018-04-17T18:34:15.205Z,61.98
2018-04-17T18:36:43.836Z,62.28
2018-04-17T18:39:12.274Z,62.46
2018-04-17T18:41:40.781Z,63.37
2018-04-17T18:44:09.332Z,63.96
2018-04-17T18:46:37.757Z,63.98
2018-04-17T18:49:06.247Z,64.28
2018-04-17T18:51:34.643Z,64.46
2018-04-17T18:54:03.057Z,64.35
2018-04-17T18:56:31.535Z,66.76
2018-04-17T18:58:59.975Z,67.10
2018-04-17T19:01:28.404Z,66.76
2018-04-17T19:03:56.922Z,66.97
2018-04-17T19:06:25.438Z,67.51
2018-04-17T19:08:53.842Z,67.95
2018-04-17T19:11:22.529Z,69.04
2018-04-17T19:13:51.098Z,69.20
2018-04-17T19:16:19.619Z,68.87
2018-04-17T19:18:48.167Z,68.13
2018-04-17T19:21:16.574Z,68.20
2018-04-17T19:23:45.036Z,68.84
2018-04-17T19:26:13.467Z,69.18
2018-04-17T19:28:41.920Z,69.18
2018-04-17T19:31:10.335Z,69.28
2018-04-17T19:33:39.089Z,70.60
2018-04-17T19:36:07.555Z,69.97
2018-04-17T19:38:35.959Z,69.82
2018-04-17T19:41:04.748Z,70.66
2018-04-17T19:43:33.291Z,70.13
2018-04-17T19:46:01.722Z,70.51
2018-04-17T19:48:30.507Z,70.93
2018-04-17T19:50:58.921Z,71.81
2018-04-17T19:53:27.344Z,72.28
2018-04-17T19:55:55.787Z,71.53
2018-04-17T19:58:24.186Z,72.01
2018-04-17T20:00:52.746Z,71.34
2018-04-17T20:03:21.599Z,71.47
2018-04-17T20:05:49.995Z,71.12
2018-04-17T20:08:18.415Z,71.78
2018-04-17T20:10:47.144Z,72.05
2018-04-17T20:13:15.547Z,73.02
2018-04-17T20:15:43.932Z,73.37
2018-04-17T20:18:12.438Z,74.74
2018-04-17T20:20:40.844Z,74.76
2018-04-17T20:23:09.355Z,74.99
2018-04-17T20:25:37.818Z,75.31
2018-04-17T20:28:06.238Z,75.00
2018-04-17T20:30:34.678Z,76.03
2018-04-17T20:33:03.140Z,76.82
2018-04-17T20:35:31.574Z,77.45
2018-04-17T20:37:59.984Z,76.99
2018-04-17T20:40:28.437Z,77.58
2018-04-17T20:42:56.863Z,77.28
2018-04-17T20:45:25.382Z,76.49
2018-04-17T20:47:53.812Z,77.63
2018-04-17T20:50:22.252Z,78.65
2018-04-17T20:52:50.704Z,78.95
2018-04-17T20:55:19.126Z,78.92
2018-04-17T20:57:47.572Z,78.76
2018-04-17T21:00:15.972Z,78.61
2018-04-17T21:02:44.403Z,77.96
2018-04-17T21:05:12.867Z,77.46
2018-04-17T21:07:41.357Z,77.38
2018-04-17T21:16:29.444Z,76.23
2018-04-17T21:18:57.887Z,77.01
2018-04-17T21:21:26.297Z,77.64
2018-04-17T21:23:54.819Z,76.67
2018-04-17T21:26:23.262Z,76.72
2018-04-17T21:28:51.663Z,77.21
2018-04-17T21:31:20.116Z,76.37
2018-04-17T21:33:48.523Z,77.64
2018-04-17T21:36:17.020Z,78.17
2018-04-17T21:38:45.915Z,77.91
2018-04-17T21:41:14.281Z,78.00
2018-04-17T21:43:42.708Z,78.84
2018-04-17T21:46:11.135Z,79.52
2018-04-17T21:48:39.553Z,79.03
2018-04-17T21:51:07.973Z,78.98
2018-04-17T21:53:36.459Z,78.47
2018-04-17T21:56:04.921Z,76.90
2018-04-17T21:58:33.344Z,75.93
2018-04-17T22:01:01.777Z,76.56
2018-04-17T22:03:30.217Z,76.41
2018-04-17T22:05:58.696Z,76.71
2018-04-17T22:08:27.102Z,77.09
2018-04-17T22:10:55.493Z,77.52
2018-04-17T22:13:23.932Z,77.34
2018-04-17T22:15:52.383Z,76.60
2018-04-17T22:18:20.783Z,76.94
2018-04-17T22:20:49.204Z,77.51
2018-04-17T22:23:17.676Z,78.19
2018-04-17T22:25:46.115Z,78.50
2018-04-17T22:28:14.587Z,78.96
2018-04-17T22:30:42.983Z,77.42
2018-04-17T22:35:46.679Z,77.56
2018-04-17T22:38:17.299Z,77.81
2018-04-17T22:40:45.974Z,78.01
2018-04-17T22:43:14.485Z,78.34
2018-04-17T22:45:43.754Z,78.80
2018-04-17T22:48:12.329Z,78.50
2018-04-17T22:50:40.791Z,77.81
2018-04-17T22:53:09.261Z,77.74
2018-04-17T22:55:37.708Z,77.86
2018-04-17T22:58:06.154Z,78.13
2018-04-17T23:00:34.664Z,78.08
2018-04-17T23:03:03.156Z,78.28
2018-04-17T23:05:31.604Z,78.20
2018-04-17T23:08:00.322Z,78.52
2018-04-17T23:10:28.730Z,78.21
2018-04-17T23:12:57.196Z,77.78
2018-04-17T23:15:25.615Z,77.77
2018-04-17T23:17:54.043Z,77.80
2018-04-17T23:20:22.472Z,77.62
2018-04-17T23:22:50.992Z,77.45
2018-04-17T23:25:19.416Z,77.68
2018-04-17T23:27:48.052Z,77.66
2018-04-17T23:30:16.459Z,77.32
2018-04-17T23:32:44.918Z,77.41
2018-04-17T23:35:13.330Z,77.76
2018-04-17T23:37:41.773Z,77.46
2018-04-17T23:40:10.261Z,77.63
2018-04-17T23:42:38.672Z,78.26
2018-04-17T23:45:07.079Z,78.03
2018-04-17T23:47:35.549Z,77.46
2018-04-17T23:50:03.910Z,76.92
2018-04-17T23:52:32.367Z,76.71
2018-04-17T23:55:00.919Z,77.13
2018-04-17T23:57:29.317Z,77.96
2018-04-17T23:59:57.713Z,77.55
